createdAt,value
2023-04-17T00:00:07.375Z,92816.91
2023-04-17T00:02:40.384Z,92821.97
2023-04-17T00:05:09.302Z,92814.53
2023-04-17T00:07:41.525Z,92811.59
2023-04-17T00:10:11.792Z,92808.19
2023-04-17T00:12:39.923Z,92819.66
2023-04-17T00:15:08.635Z,92818.34
2023-04-17T00:17:36.858Z,92813.81
2023-04-17T00:20:10.544Z,92804.06
2023-04-17T00:22:39.405Z,92810.16
2023-04-17T00:25:07.953Z,92804.06
2023-04-17T00:30:18.350Z,92813.44
2023-04-17T00:32:46.258Z,92825.13
2023-04-17T00:35:14.903Z,92823.06
2023-04-17T00:37:42.839Z,92820.09
2023-04-17T00:40:11.704Z,92814.97
2023-04-17T00:42:39.483Z,92819.25
2023-04-17T00:45:11.063Z,92807.31
2023-04-17T00:47:40.240Z,92814.22
2023-04-17T00:50:08.793Z,92799.88
2023-04-17T00:52:36.807Z,92800.13
2023-04-17T00:55:05.408Z,92817.72
2023-04-17T00:57:34.734Z,92815.56
2023-04-17T01:00:02.902Z,92820.41
2023-04-17T01:02:31.339Z,92813.19
2023-04-17T01:04:59.398Z,92815.06
2023-04-17T01:07:28.226Z,92811.66
2023-04-17T01:09:56.672Z,92818.56
2023-04-17T01:12:25.517Z,92811.34
2023-04-17T01:14:55.662Z,92803.03
2023-04-17T01:17:26.526Z,92806.25
2023-04-17T01:19:55.894Z,92800.44
2023-04-17T01:22:23.920Z,92799.31
2023-04-17T01:24:56.235Z,92806.22
2023-04-17T01:27:26.237Z,92799.88
2023-04-17T01:29:54.154Z,92804.66
2023-04-17T01:32:22.386Z,92808.66
2023-04-17T01:34:50.977Z,92803.19
2023-04-17T01:37:19.830Z,92799.25
2023-04-17T01:39:47.896Z,92797.91
2023-04-17T01:42:16.136Z,92797.69
2023-04-17T01:44:44.992Z,92800.31
2023-04-17T01:47:13.485Z,92787.81
2023-04-17T01:49:41.350Z,92783.22
2023-04-17T01:52:09.353Z,92778.34
2023-04-17T01:54:37.495Z,92778.91
2023-04-17T01:57:05.504Z,92772.81
2023-04-17T01:59:33.563Z,92776.56
2023-04-17T02:02:01.759Z,92772.81
2023-04-17T02:04:30.005Z,92776.03
2023-04-17T02:06:58.086Z,92773.34
2023-04-17T02:09:27.212Z,92766.97
2023-04-17T02:11:55.216Z,92773.66
2023-04-17T02:14:23.315Z,92754.72
2023-04-17T02:16:51.359Z,92774.38
2023-04-17T02:19:19.237Z,92767.38
2023-04-17T02:21:47.204Z,92775.59
2023-04-17T02:24:15.098Z,92773.56
2023-04-17T02:26:43.419Z,92777.31
2023-04-17T02:29:14.030Z,92771.13
2023-04-17T02:31:43.148Z,92770.81
2023-04-17T02:34:12.427Z,92788.94
2023-04-17T02:36:41.689Z,92780.41
2023-04-17T02:39:10.284Z,92782.31
2023-04-17T02:41:40.423Z,92786.38
2023-04-17T02:44:10.077Z,92784.22
2023-04-17T02:46:38.859Z,92780.03
2023-04-17T02:49:07.183Z,92779.44
2023-04-17T02:51:35.161Z,92779.50
2023-04-17T02:55:40.065Z,92775.31
2023-04-17T02:58:15.954Z,92774.50
2023-04-17T03:00:44.071Z,92776.16
2023-04-17T03:03:16.462Z,92775.88
2023-04-17T03:05:44.901Z,92779.91
2023-04-17T03:08:13.144Z,92772.16
2023-04-17T03:10:47.194Z,92779.34
2023-04-17T03:13:15.127Z,92776.44
2023-04-17T03:15:42.949Z,92769.50
2023-04-17T03:18:10.940Z,92775.34
2023-04-17T03:20:39.024Z,92780.69
2023-04-17T03:23:07.057Z,92783.06
2023-04-17T03:25:35.125Z,92786.81
2023-04-17T03:28:03.359Z,92781.66
2023-04-17T03:30:34.178Z,92787.50
2023-04-17T03:33:06.745Z,92780.59
2023-04-17T03:35:34.873Z,92778.13
2023-04-17T03:38:07.038Z,92780.56
2023-04-17T03:40:35.726Z,92770.13
2023-04-17T03:43:03.733Z,92775.44
2023-04-17T03:45:33.149Z,92775.19
2023-04-17T03:48:02.118Z,92777.31
2023-04-17T03:50:30.588Z,92771.75
2023-04-17T03:52:58.516Z,92765.09
2023-04-17T03:55:28.563Z,92781.88
2023-04-17T03:57:56.658Z,92771.19
2023-04-17T04:00:26.387Z,92775.69
2023-04-17T04:03:00.236Z,92760.25
2023-04-17T04:05:34.487Z,92782.69
2023-04-17T04:08:02.788Z,92773.94
2023-04-17T04:10:46.032Z,92776.34
2023-04-17T04:13:19.521Z,92767.25
2023-04-17T04:15:53.399Z,92773.59
2023-04-17T04:18:23.773Z,92774.16
2023-04-17T04:20:51.706Z,92781.09
2023-04-17T04:23:28.388Z,92783.25
2023-04-17T04:26:02.006Z,92776.06
2023-04-17T04:28:48.110Z,92786.44
2023-04-17T04:31:38.093Z,92785.88
2023-04-17T04:34:06.673Z,92796.81
2023-04-17T04:36:36.527Z,92792.03
2023-04-17T04:39:20.551Z,92803.47
2023-04-17T04:41:50.792Z,92800.78
2023-04-17T04:44:21.280Z,92803.53
2023-04-17T04:46:53.300Z,92806.19
2023-04-17T04:49:21.747Z,92803.56
2023-04-17T04:51:49.835Z,92793.94
2023-04-17T04:54:18.181Z,92795.50
2023-04-17T04:56:51.844Z,92802.94
2023-04-17T04:59:20.034Z,92796.78
2023-04-17T05:01:56.466Z,92795.47
2023-04-17T05:04:25.076Z,92795.75
2023-04-17T05:06:57.392Z,92799.03
2023-04-17T05:09:25.365Z,92794.25
2023-04-17T05:11:57.282Z,92798.50
2023-04-17T05:14:25.490Z,92804.38
2023-04-17T05:16:55.508Z,92809.16
2023-04-17T05:19:24.129Z,92809.97
2023-04-17T05:21:59.890Z,92806.78
2023-04-17T05:24:28.563Z,92810.22
2023-04-17T05:26:57.398Z,92812.63
2023-04-17T05:29:26.223Z,92816.03
2023-04-17T05:31:58.043Z,92814.97
2023-04-17T05:34:49.635Z,92811.81
2023-04-17T05:37:21.427Z,92817.94
2023-04-17T05:39:49.414Z,92819.53
2023-04-17T05:42:18.018Z,92814.41
2023-04-17T05:44:46.388Z,92813.91
2023-04-17T05:47:14.352Z,92812.06
2023-04-17T05:49:43.419Z,92822.50
2023-04-17T05:52:12.080Z,92806.75
2023-04-17T05:54:44.372Z,92813.16
2023-04-17T05:57:12.639Z,92816.59
2023-04-17T05:59:41.130Z,92819.47
2023-04-17T06:02:11.219Z,92821.03
2023-04-17T06:04:39.806Z,92787.28
2023-04-17T06:07:08.484Z,92820.56
2023-04-17T06:09:38.194Z,92822.41
2023-04-17T06:12:06.821Z,92826.38
2023-04-17T06:14:35.058Z,92824.47
2023-04-17T06:17:07.690Z,92830.06
2023-04-17T06:19:36.303Z,92839.22
2023-04-17T06:22:04.734Z,92838.13
2023-04-17T06:24:33.302Z,92835.72
2023-04-17T06:27:02.487Z,92831.94
2023-04-17T06:29:31.350Z,92841.84
2023-04-17T06:31:59.813Z,92843.19
2023-04-17T06:34:28.315Z,92842.94
2023-04-17T06:36:57.885Z,92845.53
2023-04-17T06:39:26.229Z,92840.09
2023-04-17T06:41:56.555Z,92845.16
2023-04-17T06:44:29.123Z,92845.47
2023-04-17T06:47:00.429Z,92843.59
2023-04-17T06:49:33.712Z,92841.69
2023-04-17T06:52:01.980Z,92843.25
2023-04-17T06:54:30.130Z,92844.72
2023-04-17T06:56:58.187Z,92831.09
2023-04-17T06:59:26.477Z,92841.69
2023-04-17T07:01:55.137Z,92842.41
2023-04-17T07:04:23.919Z,92843.28
2023-04-17T07:06:52.429Z,92841.69
2023-04-17T07:09:20.747Z,92847.34
2023-04-17T07:11:49.524Z,92850.47
2023-04-17T07:14:17.620Z,92852.09
2023-04-17T07:16:46.838Z,92847.78
2023-04-17T07:19:15.378Z,92849.00
2023-04-17T07:21:44.260Z,92845.59
2023-04-17T07:24:12.457Z,92853.88
2023-04-17T07:26:40.878Z,92851.78
2023-04-17T07:29:09.650Z,92855.75
2023-04-17T07:31:39.356Z,92857.22
2023-04-17T07:34:08.041Z,92860.22
2023-04-17T07:36:37.546Z,92868.97
2023-04-17T07:39:07.588Z,92863.31
2023-04-17T07:41:36.441Z,92866.88
2023-04-17T07:44:06.230Z,92867.84
2023-04-17T07:46:34.802Z,92868.09
2023-04-17T07:49:03.370Z,92867.59
2023-04-17T07:51:32.097Z,92864.03
2023-04-17T07:54:00.653Z,92863.19
2023-04-17T07:56:29.301Z,92865.97
2023-04-17T07:58:58.683Z,92860.66
2023-04-17T08:01:28.134Z,92861.28
2023-04-17T08:03:56.750Z,92871.06
2023-04-17T08:06:26.504Z,92867.69
2023-04-17T08:08:55.029Z,92871.69
2023-04-17T08:11:23.546Z,92862.38
2023-04-17T08:13:52.144Z,92872.56
2023-04-17T08:16:20.647Z,92863.47
2023-04-17T08:18:49.210Z,92875.19
2023-04-17T08:21:17.696Z,92862.47
2023-04-17T08:23:46.298Z,92866.47
2023-04-17T08:26:14.878Z,92865.44
2023-04-17T08:28:43.295Z,92869.69
2023-04-17T08:31:11.652Z,92873.19
2023-04-17T08:33:40.333Z,92866.44
2023-04-17T08:36:10.211Z,92865.19
2023-04-17T08:38:39.054Z,92859.56
2023-04-17T08:41:13.752Z,92861.81
2023-04-17T08:43:44.001Z,92858.06
2023-04-17T08:46:12.745Z,92853.75
2023-04-17T08:48:41.280Z,92850.56
2023-04-17T08:51:09.599Z,92849.78
2023-04-17T08:53:38.084Z,92857.22
2023-04-17T08:56:09.078Z,92843.28
2023-04-17T08:58:37.888Z,92851.06
2023-04-17T09:01:16.179Z,92856.25
2023-04-17T09:03:46.772Z,92853.63
2023-04-17T09:06:16.570Z,92859.66
2023-04-17T09:08:59.758Z,92871.94
2023-04-17T09:11:28.956Z,92878.13
2023-04-17T09:13:57.500Z,92874.41
2023-04-17T09:16:26.084Z,92871.22
2023-04-17T09:19:06.400Z,92880.31
2023-04-17T09:21:35.768Z,92879.84
2023-04-17T09:24:05.766Z,92879.28
2023-04-17T09:26:34.488Z,92875.94
2023-04-17T09:29:12.409Z,92871.38
2023-04-17T09:31:43.383Z,92872.94
2023-04-17T09:34:13.639Z,92869.97
2023-04-17T09:36:44.054Z,92871.47
2023-04-17T09:39:26.405Z,92877.53
2023-04-17T09:42:10.739Z,92864.16
2023-04-17T09:44:40.700Z,92865.41
2023-04-17T09:47:11.712Z,92870.34
2023-04-17T09:49:43.203Z,92862.13
2023-04-17T09:52:12.873Z,92863.91
2023-04-17T09:54:43.271Z,92853.06
2023-04-17T09:57:11.908Z,92860.75
2023-04-17T09:59:50.174Z,92862.25
2023-04-17T10:02:20.298Z,92853.41
2023-04-17T10:04:49.105Z,92850.97
2023-04-17T10:07:18.232Z,92851.09
2023-04-17T10:09:47.680Z,92848.00
2023-04-17T10:12:19.138Z,92850.69
2023-04-17T10:14:52.441Z,92851.69
2023-04-17T10:17:37.581Z,92844.69
2023-04-17T10:20:18.130Z,92852.88
2023-04-17T10:22:49.753Z,92843.22
2023-04-17T10:25:20.375Z,92839.75
2023-04-17T10:28:09.271Z,92840.47
2023-04-17T10:30:57.286Z,92828.13
2023-04-17T10:33:26.823Z,92833.75
2023-04-17T10:35:55.926Z,92845.31
2023-04-17T10:38:36.544Z,92830.59
2023-04-17T10:41:09.678Z,92830.44
2023-04-17T10:43:42.346Z,92826.28
2023-04-17T10:46:15.269Z,92820.50
2023-04-17T10:48:49.991Z,92820.81
2023-04-17T10:51:28.156Z,92823.41
2023-04-17T10:53:59.107Z,92842.06
2023-04-17T10:56:29.604Z,92844.09
2023-04-17T10:59:30.371Z,92839.56
2023-04-17T11:02:01.663Z,92834.81
2023-04-17T11:04:32.214Z,92834.84
2023-04-17T11:07:01.487Z,92821.06
2023-04-17T11:09:30.376Z,92833.69
2023-04-17T11:12:02.339Z,92825.84
2023-04-17T11:14:31.514Z,92827.31
2023-04-17T11:17:01.656Z,92824.00
2023-04-17T11:19:32.478Z,92821.41
2023-04-17T11:22:03.036Z,92822.09
2023-04-17T11:24:32.537Z,92817.50
2023-04-17T11:27:02.360Z,92817.28
2023-04-17T11:29:31.222Z,92820.28
2023-04-17T11:32:01.223Z,92821.81
2023-04-17T11:34:31.403Z,92814.34
2023-04-17T11:37:01.867Z,92810.44
2023-04-17T11:39:34.428Z,92811.34
2023-04-17T11:42:03.813Z,92818.41
2023-04-17T11:44:32.328Z,92801.53
2023-04-17T11:47:02.360Z,92796.34
2023-04-17T11:49:39.367Z,92798.47
2023-04-17T11:52:07.813Z,92805.56
2023-04-17T11:54:38.334Z,92791.72
2023-04-17T11:57:08.196Z,92789.75
2023-04-17T11:59:39.074Z,92798.41
2023-04-17T12:02:09.111Z,92797.94
2023-04-17T12:04:40.080Z,92785.06
2023-04-17T12:07:21.323Z,92788.28
2023-04-17T12:09:59.038Z,92781.19
2023-04-17T12:12:27.606Z,92786.69
2023-04-17T12:14:56.085Z,92785.31
2023-04-17T12:17:24.619Z,92786.34
2023-04-17T12:19:53.860Z,92783.66
2023-04-17T12:22:23.585Z,92787.66
2023-04-17T12:24:52.483Z,92783.56
2023-04-17T12:27:20.894Z,92788.06
2023-04-17T12:29:49.385Z,92781.03
2023-04-17T12:32:17.777Z,92789.06
2023-04-17T12:34:47.335Z,92782.19
2023-04-17T12:37:16.475Z,92793.31
2023-04-17T12:39:44.941Z,92789.06
2023-04-17T12:42:13.515Z,92790.25
2023-04-17T12:44:42.167Z,92784.69
2023-04-17T12:47:10.762Z,92796.13
2023-04-17T12:49:39.108Z,92784.16
2023-04-17T12:52:07.543Z,92786.56
2023-04-17T12:54:36.345Z,92785.44
2023-04-17T12:57:05.172Z,92780.50
2023-04-17T12:59:34.428Z,92790.06
2023-04-17T13:02:02.944Z,92779.97
2023-04-17T13:04:31.594Z,92776.94
2023-04-17T13:07:00.745Z,92774.13
2023-04-17T13:09:29.201Z,92782.44
2023-04-17T13:11:58.320Z,92761.09
2023-04-17T13:14:26.684Z,92768.50
2023-04-17T13:16:55.253Z,92770.75
2023-04-17T13:19:23.941Z,92773.31
2023-04-17T13:21:52.701Z,92771.50
2023-04-17T13:24:20.981Z,92765.44
2023-04-17T13:26:49.659Z,92765.34
2023-04-17T13:29:19.510Z,92768.50
2023-04-17T13:31:48.294Z,92758.75
2023-04-17T13:34:16.903Z,92755.25
2023-04-17T13:36:45.658Z,92761.53
2023-04-17T13:39:15.359Z,92772.16
2023-04-17T13:41:43.969Z,92768.25
2023-04-17T13:44:12.944Z,92746.09
2023-04-17T13:46:42.020Z,92770.56
2023-04-17T13:49:11.388Z,92769.19
2023-04-17T13:51:40.086Z,92768.19
2023-04-17T13:54:10.363Z,92768.25
2023-04-17T13:56:39.017Z,92766.19
2023-04-17T13:59:07.826Z,92763.88
2023-04-17T14:01:36.480Z,92760.50
2023-04-17T14:04:05.409Z,92758.94
2023-04-17T14:06:35.217Z,92759.59
2023-04-17T14:09:03.723Z,92752.47
2023-04-17T14:11:32.333Z,92756.44
2023-04-17T14:14:01.021Z,92755.84
2023-04-17T14:16:29.842Z,92757.03
2023-04-17T14:19:12.774Z,92748.00
2023-04-17T14:21:43.208Z,92752.88
2023-04-17T14:24:11.644Z,92759.25
2023-04-17T14:26:40.301Z,92758.41
2023-04-17T14:29:11.122Z,92755.81
2023-04-17T14:31:39.883Z,92753.81
2023-04-17T14:34:08.286Z,92747.06
2023-04-17T14:36:36.960Z,92748.22
2023-04-17T14:39:05.352Z,92758.06
2023-04-17T14:41:34.611Z,92755.94
2023-04-17T14:44:03.268Z,92757.91
2023-04-17T14:46:32.331Z,92761.69
2023-04-17T14:49:01.106Z,92756.84
2023-04-17T14:51:30.650Z,92758.31
2023-04-17T14:53:59.584Z,92760.44
2023-04-17T14:56:27.874Z,92750.84
2023-04-17T14:58:56.229Z,92750.19
2023-04-17T15:01:24.563Z,92750.66
2023-04-17T15:03:53.252Z,92758.72
2023-04-17T15:06:22.159Z,92757.22
2023-04-17T15:08:50.492Z,92762.16
2023-04-17T15:11:19.565Z,92757.66
2023-04-17T15:13:48.338Z,92760.00
2023-04-17T15:16:16.953Z,92755.03
2023-04-17T15:18:45.474Z,92758.38
2023-04-17T15:21:16.883Z,92754.91
2023-04-17T15:23:45.865Z,92752.88
2023-04-17T15:26:14.128Z,92749.13
2023-04-17T15:28:42.581Z,92752.16
2023-04-17T15:31:11.269Z,92746.00
2023-04-17T15:33:39.682Z,92746.50
2023-04-17T15:36:08.249Z,92751.19
2023-04-17T15:38:36.689Z,92746.31
2023-04-17T15:41:05.164Z,92749.88
2023-04-17T15:43:33.655Z,92749.78
2023-04-17T15:46:03.858Z,92753.13
2023-04-17T15:48:32.392Z,92755.16
2023-04-17T15:51:03.752Z,92759.56
2023-04-17T15:53:32.780Z,92760.94
2023-04-17T15:56:01.150Z,92768.50
2023-04-17T15:58:29.646Z,92766.16
2023-04-17T16:00:58.012Z,92767.66
2023-04-17T16:03:26.720Z,92764.66
2023-04-17T16:05:55.121Z,92744.81
2023-04-17T16:08:23.697Z,92774.00
2023-04-17T16:10:52.378Z,92778.63
2023-04-17T16:13:21.361Z,92787.19
2023-04-17T16:15:50.506Z,92777.00
2023-04-17T16:18:18.942Z,92774.66
2023-04-17T16:20:47.376Z,92779.59
2023-04-17T16:23:16.061Z,92797.47
2023-04-17T16:25:44.393Z,92797.50
2023-04-17T16:28:12.840Z,92803.41
2023-04-17T16:30:41.508Z,92814.94
2023-04-17T16:33:10.085Z,92821.03
2023-04-17T16:35:38.541Z,92818.38
2023-04-17T16:38:07.380Z,92818.56
2023-04-17T16:40:35.955Z,92825.53
2023-04-17T16:43:04.377Z,92837.06
2023-04-17T16:45:32.852Z,92830.41
2023-04-17T16:48:01.658Z,92833.66
2023-04-17T16:50:30.301Z,92839.00
2023-04-17T16:52:58.757Z,92832.91
2023-04-17T16:55:27.196Z,92838.28
2023-04-17T16:57:56.088Z,92836.75
2023-04-17T17:00:24.568Z,92836.78
2023-04-17T17:02:53.132Z,92842.16
2023-04-17T17:05:22.031Z,92841.66
2023-04-17T17:07:50.659Z,92844.34
2023-04-17T17:10:19.221Z,92847.81
2023-04-17T17:12:47.561Z,92846.75
2023-04-17T17:15:16.223Z,92848.88
2023-04-17T17:17:44.683Z,92852.88
2023-04-17T17:20:13.505Z,92854.19
2023-04-17T17:22:41.934Z,92867.00
2023-04-17T17:25:10.372Z,92859.00
2023-04-17T17:27:39.131Z,92865.94
2023-04-17T17:30:07.722Z,92870.69
2023-04-17T17:32:36.209Z,92874.13
2023-04-17T17:35:04.833Z,92865.84
2023-04-17T17:37:33.256Z,92870.34
2023-04-17T17:40:03.641Z,92876.50
2023-04-17T17:42:32.210Z,92882.13
2023-04-17T17:45:00.731Z,92881.28
2023-04-17T17:47:29.496Z,92885.31
2023-04-17T17:49:58.111Z,92885.88
2023-04-17T17:52:26.493Z,92887.69
2023-04-17T17:54:55.125Z,92895.19
2023-04-17T17:57:23.780Z,92891.78
2023-04-17T17:59:52.330Z,92898.13
2023-04-17T18:02:21.485Z,92906.16
2023-04-17T18:04:49.819Z,92916.59
2023-04-17T18:07:18.181Z,92905.38
2023-04-17T18:09:48.394Z,92929.31
2023-04-17T18:12:18.808Z,92926.94
2023-04-17T18:14:47.139Z,92924.22
2023-04-17T18:17:15.798Z,92925.28
2023-04-17T18:19:44.640Z,92917.00
2023-04-17T18:22:12.916Z,92920.19
2023-04-17T18:24:41.531Z,92925.53
2023-04-17T18:27:10.015Z,92928.19
2023-04-17T18:29:38.570Z,92928.47
2023-04-17T18:32:07.134Z,92942.63
2023-04-17T18:34:35.628Z,92936.22
2023-04-17T18:37:04.448Z,92949.28
2023-04-17T18:39:33.300Z,92937.28
2023-04-17T18:42:02.170Z,92941.00
2023-04-17T18:44:30.944Z,92941.78
2023-04-17T18:46:59.455Z,92949.00
2023-04-17T18:49:28.064Z,92942.88
2023-04-17T18:51:56.656Z,92945.81
2023-04-17T18:54:25.062Z,92948.47
2023-04-17T18:56:53.424Z,92950.66
2023-04-17T18:59:21.933Z,92946.13
2023-04-17T19:01:50.613Z,92950.41
2023-04-17T19:04:19.264Z,92940.50
2023-04-17T19:06:47.851Z,92938.13
2023-04-17T19:09:16.287Z,92936.22
2023-04-17T19:11:44.713Z,92942.91
2023-04-17T19:14:13.321Z,92930.63
2023-04-17T19:16:42.865Z,92950.09
2023-04-17T19:19:13.951Z,92949.31
2023-04-17T19:21:42.601Z,92946.94
2023-04-17T19:24:11.221Z,92946.44
2023-04-17T19:26:39.646Z,92947.53
2023-04-17T19:29:08.089Z,92949.63
2023-04-17T19:31:37.941Z,92950.44
2023-04-17T19:34:07.419Z,92933.38
2023-04-17T19:36:36.287Z,92947.81
2023-04-17T19:39:05.366Z,92948.06
2023-04-17T19:41:33.724Z,92953.13
2023-04-17T19:44:02.343Z,92951.81
2023-04-17T19:46:30.993Z,92942.94
2023-04-17T19:48:58.997Z,92938.69
2023-04-17T19:51:27.956Z,92941.06
2023-04-17T19:53:56.732Z,92942.13
2023-04-17T19:56:25.083Z,92944.78
2023-04-17T19:58:53.927Z,92938.38
2023-04-17T20:01:22.442Z,92939.16
2023-04-17T20:03:51.760Z,92938.09
2023-04-17T20:06:20.347Z,92945.28
2023-04-17T20:08:50.417Z,92938.88
2023-04-17T20:11:18.927Z,92938.06
2023-04-17T20:13:47.094Z,92949.56
2023-04-17T20:16:16.416Z,92945.03
2023-04-17T20:18:46.078Z,92951.97
2023-04-17T20:21:14.362Z,92946.63
2023-04-17T20:23:42.407Z,92941.28
2023-04-17T20:26:11.565Z,92945.00
2023-04-17T20:28:39.654Z,92942.38
2023-04-17T20:31:08.091Z,92950.09
2023-04-17T20:33:36.063Z,92946.09
2023-04-17T20:36:04.576Z,92945.84
2023-04-17T20:38:32.647Z,92950.63
2023-04-17T20:41:01.086Z,92942.63
2023-04-17T20:43:29.664Z,92945.03
2023-04-17T20:45:59.172Z,92943.16
2023-04-17T20:48:27.717Z,92939.16
2023-04-17T20:50:55.798Z,92941.28
2023-04-17T20:53:23.616Z,92946.09
2023-04-17T20:55:52.100Z,92943.69
2023-04-17T20:58:20.308Z,92942.34
2023-04-17T21:03:22.772Z,92932.50
2023-04-17T21:05:50.897Z,92937.81
2023-04-17T21:08:18.826Z,92939.69
2023-04-17T21:10:46.764Z,92934.59
2023-04-17T21:13:14.818Z,92940.22
2023-04-17T21:15:42.910Z,92944.25
2023-04-17T21:18:10.991Z,92948.78
2023-04-17T21:20:39.593Z,92948.00
2023-04-17T21:23:07.693Z,92947.44
2023-04-17T21:25:36.055Z,92944.75
2023-04-17T21:28:04.203Z,92947.97
2023-04-17T21:30:32.294Z,92953.84
2023-04-17T21:33:00.377Z,92947.72
2023-04-17T21:35:28.384Z,92945.03
2023-04-17T21:37:56.307Z,92943.72
2023-04-17T21:40:25.310Z,92943.44
2023-04-17T21:42:53.956Z,92943.44
2023-04-17T21:45:21.945Z,92948.25
2023-04-17T21:47:50.105Z,92953.84
2023-04-17T21:50:18.248Z,92945.84
2023-04-17T21:52:46.127Z,92949.31
2023-04-17T21:55:14.098Z,92942.13
2023-04-17T21:57:42.078Z,92947.19
2023-04-17T22:00:12.824Z,92943.75
2023-04-17T22:02:40.812Z,92946.13
2023-04-17T22:05:09.081Z,92952.00
2023-04-17T22:07:47.362Z,92946.41
2023-04-17T22:10:24.323Z,92939.47
2023-04-17T22:12:52.450Z,92939.47
2023-04-17T22:15:20.384Z,92946.16
2023-04-17T22:17:48.568Z,92944.00
2023-04-17T22:20:16.795Z,92946.41
2023-04-17T22:22:47.292Z,92951.50
2023-04-17T22:25:15.265Z,92946.72
2023-04-17T22:27:43.144Z,92946.41
2023-04-17T22:30:11.351Z,92946.16
2023-04-17T22:32:39.531Z,92948.88
2023-04-17T22:35:08.256Z,92957.41
2023-04-17T22:37:36.258Z,92951.25
2023-04-17T22:40:05.021Z,92942.19
2023-04-17T22:42:32.909Z,92951.81
2023-04-17T22:45:01.536Z,92955.81
2023-04-17T22:47:29.404Z,92951.00
2023-04-17T22:49:57.799Z,92955.25
2023-04-17T22:52:25.600Z,92949.41
2023-04-17T22:54:54.191Z,92958.16
2023-04-17T22:57:21.997Z,92953.13
2023-04-17T22:59:49.866Z,92951.53
2023-04-17T23:02:17.867Z,92952.31
2023-04-17T23:04:46.112Z,92952.34
2023-04-17T23:07:13.967Z,92953.66
2023-04-17T23:09:42.314Z,92960.31
2023-04-17T23:12:10.140Z,92954.75
2023-04-17T23:14:37.971Z,92953.66
2023-04-17T23:17:06.772Z,92951.28
2023-04-17T23:19:34.671Z,92943.53
2023-04-17T23:22:02.672Z,92942.75
2023-04-17T23:24:34.800Z,92944.59
2023-04-17T23:27:03.011Z,92950.72
2023-04-17T23:29:30.911Z,92947.81
2023-04-17T23:31:58.807Z,92952.88
2023-04-17T23:34:28.196Z,92948.31
2023-04-17T23:36:56.244Z,92948.59
2023-04-17T23:39:24.795Z,92945.16
2023-04-17T23:41:52.661Z,92959.00
2023-04-17T23:44:20.839Z,92956.34
2023-04-17T23:46:48.757Z,92958.22
2023-04-17T23:49:19.910Z,92952.31
2023-04-17T23:51:47.795Z,92953.13
2023-04-17T23:54:15.791Z,92959.81
2023-04-17T23:56:43.997Z,92957.94
2023-04-17T23:59:11.967Z,92956.31
